Bragantina, Brazil
Current Conditions -  °F | °C
As of 4:00 PM on Wednesday 28 Jan 2015 (Local Time) from SBCA Reporting Station
Light Rain Light Rain  
Wind Chill: 77°   Ceiling: Unl
Heat Index: 79°   Visibility: 6mi
Dew Point: 70°   Wind: 21mph
Humidity: 78%   Direction: 20°NNE
Pressure: 29.91"   Gusts: 32mph
Location:  24.61°S, 53.61°W
Report Text: SBCA 281800Z 02018G28KT 9999 -RA SCT014 FEW030TCU SCT070 25/21 Q1013
Loading
Personal Weather Stations






























Interactive Weather Map New forecast layout! Learn more

10-Day Weather Forecast

Advertisements
Track Severe Weather on mobile